Time;durP1;ratioP1;P1;durP2;ratioP2;P2;SDS_P1;SDS_P2;PMS_P1;PMS_P2;Temp;Humidity;BMP_temperature;BMP_pressure;BME280_temperature;BME280_humidity;BME280_pressure;Samples;Min_cycle;Max_cycle;Signal;HPM_P1;HPM_P2
2021/01/31 00:00:00;;;;;;;15.83;7.37;;;-0.60;91.80;;;;;;5040019;28;20124;-73
2021/01/31 00:02:37;;;;;;;17.70;8.47;;;-0.60;91.80;;;;;;5002861;28;20042;-73
2021/01/31 00:05:04;;;;;;;17.30;8.47;;;-0.60;91.80;;;;;;5043047;28;20047;-73
2021/01/31 00:07:31;;;;;;;20.90;9.23;;;-0.60;91.70;;;;;;5030945;28;20403;-75
2021/01/31 00:09:57;;;;;;;17.60;7.63;;;-0.60;91.80;;;;;;5042510;28;20049;-74
2021/01/31 00:12:24;;;;;;;16.70;8.27;;;-0.60;91.80;;;;;;5034526;28;20049;-74
2021/01/31 00:14:51;;;;;;;16.73;7.40;;;-0.60;91.80;;;;;;5050993;28;20052;-74
2021/01/31 00:17:18;;;;;;;14.27;6.73;;;-0.60;91.80;;;;;;5036307;28;20460;-75
2021/01/31 00:19:45;;;;;;;17.17;7.67;;;-0.60;91.80;;;;;;5032617;28;20088;-74
2021/01/31 00:22:11;;;;;;;15.43;7.77;;;-0.70;91.80;;;;;;5037807;28;20124;-74
2021/01/31 00:24:38;;;;;;;15.10;8.23;;;-0.70;91.80;;;;;;5034380;28;20041;-74
2021/01/31 00:27:05;;;;;;;18.07;8.50;;;-0.70;91.80;;;;;;5035079;28;20052;-75
2021/01/31 00:29:31;;;;;;;15.17;7.20;;;-0.70;91.80;;;;;;5044682;28;20514;-74
2021/01/31 00:31:58;;;;;;;14.23;6.70;;;-0.70;91.90;;;;;;5029337;28;20033;-74
2021/01/31 00:34:24;;;;;;;13.77;6.83;;;-0.70;91.90;;;;;;5040281;28;20103;-74
2021/01/31 00:36:51;;;;;;;10.80;5.60;;;-0.80;91.90;;;;;;5007075;28;20868;-74
2021/01/31 00:39:17;;;;;;;13.17;6.23;;;-0.80;91.90;;;;;;5035186;28;20030;-74
2021/01/31 00:41:44;;;;;;;12.57;5.63;;;-0.80;91.90;;;;;;5020387;28;20061;-74
2021/01/31 00:44:10;;;;;;;13.93;6.30;;;-0.80;91.90;;;;;;5033573;28;20505;-74
2021/01/31 00:46:41;;;;;;;16.83;7.87;;;-0.90;92.00;;;;;;5037606;28;20053;-74
2021/01/31 00:49:10;;;;;;;15.23;7.23;;;-0.90;92.00;;;;;;5029330;28;20037;-74
2021/01/31 00:51:38;;;;;;;14.23;7.87;;;-0.90;92.00;;;;;;5038620;28;20493;-75
2021/01/31 00:54:06;;;;;;;15.03;8.20;;;-0.90;92.00;;;;;;5031460;28;20050;-74
2021/01/31 00:56:33;;;;;;;16.07;7.93;;;-0.90;92.00;;;;;;5039392;28;20045;-74
2021/01/31 00:59:00;;;;;;;17.33;7.40;;;-1.00;92.00;;;;;;4989854;28;20052;-74
2021/01/31 01:01:26;;;;;;;17.40;8.97;;;-1.00;92.00;;;;;;5039133;28;20033;-74
2021/01/31 01:03:54;;;;;;;17.20;8.67;;;-1.00;92.00;;;;;;5048183;28;20069;-74
2021/01/31 01:06:28;;;;;;;16.93;7.83;;;-1.00;92.00;;;;;;5033009;28;20087;-75
2021/01/31 01:08:54;;;;;;;19.20;8.97;;;-1.00;92.00;;;;;;5053334;28;20041;-74
2021/01/31 01:11:21;;;;;;;17.83;7.83;;;-1.00;92.00;;;;;;5019724;28;20053;-74
2021/01/31 01:13:47;;;;;;;15.00;7.33;;;-1.00;92.00;;;;;;5029188;28;20149;-74
2021/01/31 01:16:14;;;;;;;19.80;9.37;;;-1.00;92.00;;;;;;5034689;28;20086;-75
2021/01/31 01:18:40;;;;;;;15.70;7.80;;;-1.10;92.10;;;;;;5048252;28;20489;-74
2021/01/31 01:21:07;;;;;;;15.53;7.87;;;-1.10;92.10;;;;;;5004358;28;20486;-74
2021/01/31 01:23:33;;;;;;;13.43;7.23;;;-1.10;92.10;;;;;;5054614;28;20114;-74
2021/01/31 01:26:00;;;;;;;14.40;6.47;;;-1.10;92.10;;;;;;5038123;28;20037;-74
2021/01/31 01:28:26;;;;;;;15.40;6.60;;;-1.10;92.10;;;;;;5053004;28;20493;-74
2021/01/31 01:30:54;;;;;;;13.67;6.07;;;-1.10;92.10;;;;;;5030430;28;20552;-74
2021/01/31 01:33:20;;;;;;;11.97;5.63;;;-1.10;92.10;;;;;;5037450;28;20071;-74
2021/01/31 01:35:47;;;;;;;13.73;5.83;;;-1.10;92.20;;;;;;5029752;28;20127;-74
2021/01/31 01:38:13;;;;;;;13.03;7.27;;;-1.10;92.20;;;;;;5055322;28;20037;-74
2021/01/31 01:40:41;;;;;;;11.13;6.17;;;-1.10;92.20;;;;;;5051188;28;20049;-74
2021/01/31 01:43:15;;;;;;;13.80;6.20;;;-1.10;92.20;;;;;;5048834;28;20037;-74
2021/01/31 01:45:43;;;;;;;16.30;7.83;;;-1.10;92.20;;;;;;5047121;28;20053;-72
2021/01/31 01:48:17;;;;;;;15.50;7.27;;;-1.10;92.20;;;;;;5038946;28;20088;-73
2021/01/31 01:50:51;;;;;;;14.03;7.03;;;-1.10;92.10;;;;;;5021440;28;20057;-72
2021/01/31 01:53:21;;;;;;;17.40;9.13;;;-1.20;92.10;;;;;;5028237;28;20046;-73
2021/01/31 01:56:12;;;;;;;15.77;7.97;;;-1.10;92.20;;;;;;5038976;28;20447;-72
2021/01/31 01:58:39;;;;;;;15.47;7.20;;;-1.20;92.10;;;;;;5013791;28;20103;-72
2021/01/31 02:01:07;;;;;;;14.93;7.60;;;-1.10;92.40;;;;;;5033338;28;20057;-72
2021/01/31 02:03:41;;;;;;;16.37;6.87;;;-1.20;92.10;;;;;;5036187;28;20140;-72
2021/01/31 02:06:25;;;;;;;15.53;7.40;;;-1.20;92.20;;;;;;5014167;28;20165;-72
2021/01/31 02:08:55;;;;;;;13.27;5.90;;;-1.20;92.20;;;;;;5051564;28;20052;-72
2021/01/31 02:11:23;;;;;;;13.27;6.83;;;-1.20;92.20;;;;;;5005745;28;20076;-72
2021/01/31 02:13:57;;;;;;;12.97;5.87;;;-1.20;92.40;;;;;;5015881;28;20049;-74
2021/01/31 02:16:29;;;;;;;17.10;8.07;;;-1.20;92.20;;;;;;5052882;28;20041;-75
2021/01/31 02:19:16;;;;;;;13.17;6.53;;;-1.20;92.20;;;;;;5034905;28;20060;-75
2021/01/31 02:21:58;;;;;;;13.77;6.77;;;-1.20;92.20;;;;;;5047965;28;20122;-74
2021/01/31 02:25:00;;;;;;;12.90;7.20;;;-1.20;92.30;;;;;;5040405;28;20049;-74
2021/01/31 02:27:53;;;;;;;13.27;5.70;;;-1.30;92.20;;;;;;5034373;28;20064;-75
2021/01/31 02:30:41;;;;;;;12.85;6.88;;;-1.30;92.20;;;;;;5026784;28;20498;-74
2021/01/31 02:33:22;;;;;;;14.47;7.10;;;-1.30;92.20;;;;;;5034736;28;20100;-75
2021/01/31 02:35:51;;;;;;;13.37;5.93;;;-1.30;92.30;;;;;;5045613;28;20077;-75
2021/01/31 02:38:30;;;;;;;15.77;7.40;;;-1.30;92.30;;;;;;5039015;28;20045;-74
2021/01/31 02:41:02;;;;;;;13.70;6.83;;;-1.30;92.30;;;;;;5022624;28;20095;-74
2021/01/31 02:43:41;;;;;;;12.97;6.37;;;-1.30;92.30;;;;;;5040086;28;20091;-74
2021/01/31 02:46:31;;;;;;;14.40;7.30;;;-1.30;92.30;;;;;;5030651;28;20111;-72
2021/01/31 02:49:03;;;;;;;15.07;7.13;;;-1.30;92.30;;;;;;5046544;28;20097;-73
2021/01/31 02:51:37;;;;;;;12.40;5.75;;;-1.30;92.30;;;;;;5036887;28;20048;-72
2021/01/31 02:54:14;;;;;;;10.80;5.00;;;-1.40;92.30;;;;;;5041864;28;20051;-73
2021/01/31 02:56:50;;;;;;;11.70;5.30;;;-1.40;92.30;;;;;;5032337;28;20054;-74
2021/01/31 02:59:48;;;;;;;11.00;6.03;;;-1.40;92.40;;;;;;5026064;28;20518;-75
2021/01/31 03:02:20;;;;;;;9.93;5.10;;;-1.40;92.30;;;;;;5039338;28;20049;-75
2021/01/31 03:04:56;;;;;;;14.25;5.80;;;-1.40;92.40;;;;;;5035926;28;20068;-74
2021/01/31 03:07:32;;;;;;;12.77;6.57;;;-1.40;92.40;;;;;;5037769;28;20052;-74
2021/01/31 03:10:18;;;;;;;11.80;5.40;;;-1.50;92.30;;;;;;5029560;28;20042;-75
2021/01/31 03:13:09;;;;;;;10.43;4.50;;;-1.50;92.40;;;;;;5050443;28;20435;-74
2021/01/31 03:15:42;;;;;;;13.67;6.83;;;-1.50;92.40;;;;;;5038045;28;20767;-74
2021/01/31 03:18:17;;;;;;;14.00;5.73;;;-1.50;92.50;;;;;;5033321;28;20044;-74
2021/01/31 03:20:53;;;;;;;11.77;5.90;;;-1.50;92.50;;;;;;5048566;28;20095;-74
2021/01/31 03:23:38;;;;;;;10.87;5.37;;;-1.50;92.50;;;;;;5028411;28;20070;-75
2021/01/31 03:26:44;;;;;;;14.40;6.23;;;-1.50;92.50;;;;;;5024049;28;20096;-75
2021/01/31 03:29:12;;;;;;;10.53;5.73;;;-1.50;92.40;;;;;;5033167;28;20046;-74
2021/01/31 03:31:43;;;;;;;10.83;5.23;;;-1.50;92.50;;;;;;5045929;28;20046;-74
2021/01/31 03:34:14;;;;;;;12.63;6.93;;;-1.50;92.50;;;;;;5024919;28;20404;-74
2021/01/31 03:36:46;;;;;;;14.97;7.27;;;-1.50;92.50;;;;;;5038891;28;20045;-74
2021/01/31 03:39:14;;;;;;;12.63;5.73;;;-1.50;92.50;;;;;;5041542;28;20492;-74
2021/01/31 03:41:42;;;;;;;14.73;7.50;;;-1.60;92.40;;;;;;5032055;28;20540;-74
2021/01/31 03:44:09;;;;;;;14.17;5.33;;;-1.50;92.50;;;;;;5031587;28;20038;-72
2021/01/31 03:46:45;;;;;;;14.90;6.23;;;-1.60;92.50;;;;;;5027283;28;20060;-72
2021/01/31 03:49:35;;;;;;;11.23;5.60;;;-1.50;92.50;;;;;;5029630;28;20045;-72
2021/01/31 03:52:02;;;;;;;12.70;6.10;;;-1.60;92.50;;;;;;5030878;28;20150;-72
2021/01/31 03:54:29;;;;;;;13.60;6.90;;;-1.60;92.50;;;;;;5030908;28;20456;-72
2021/01/31 03:57:05;;;;;;;16.50;6.77;;;-1.60;92.50;;;;;;5005908;28;20072;-72
2021/01/31 03:59:40;;;;;;;15.67;7.53;;;-1.60;92.50;;;;;;5019293;28;20045;-72
2021/01/31 04:02:10;;;;;;;14.77;6.93;;;-1.50;92.50;;;;;;5046294;28;20033;-73
2021/01/31 04:04:44;;;;;;;14.43;6.17;;;-1.50;92.50;;;;;;5021108;28;20464;-72
2021/01/31 04:07:16;;;;;;;12.40;6.47;;;-1.60;92.40;;;;;;5031692;28;20064;-72
2021/01/31 04:09:45;;;;;;;14.23;6.63;;;-1.60;92.50;;;;;;5023023;28;20053;-72
2021/01/31 04:12:15;;;;;;;14.07;6.63;;;-1.60;92.50;;;;;;5031464;28;20041;-72
2021/01/31 04:14:45;;;;;;;15.27;6.73;;;-1.60;92.50;;;;;;5029862;28;20052;-72
2021/01/31 04:17:11;;;;;;;12.13;6.50;;;-1.60;92.50;;;;;;5019342;28;20080;-72
2021/01/31 04:19:37;;;;;;;12.47;5.67;;;-1.60;92.50;;;;;;5008248;28;20379;-73
2021/01/31 04:22:04;;;;;;;12.90;5.67;;;-1.60;92.60;;;;;;5030209;28;20512;-72
2021/01/31 04:24:30;;;;;;;14.07;6.27;;;-1.60;92.60;;;;;;5024603;28;20045;-72
2021/01/31 04:26:57;;;;;;;11.10;5.03;;;-1.60;92.50;;;;;;5024415;28;20045;-72
2021/01/31 04:29:23;;;;;;;9.90;4.77;;;-1.70;92.50;;;;;;5024087;28;20041;-73
2021/01/31 04:31:50;;;;;;;13.70;6.73;;;-1.60;92.60;;;;;;5006994;28;20049;-72
2021/01/31 04:34:16;;;;;;;11.37;5.57;;;-1.70;92.80;;;;;;5029917;28;20041;-72
2021/01/31 04:36:43;;;;;;;14.00;6.80;;;-1.70;92.60;;;;;;5030181;28;20532;-72
2021/01/31 04:39:11;;;;;;;16.30;7.50;;;-1.70;92.60;;;;;;5008902;28;20045;-72
2021/01/31 04:41:40;;;;;;;12.93;6.10;;;-1.70;92.50;;;;;;5030069;28;20124;-72
2021/01/31 04:44:14;;;;;;;14.43;6.80;;;-1.70;92.60;;;;;;5023540;28;20570;-73
2021/01/31 04:47:07;;;;;;;14.80;7.43;;;-1.70;92.60;;;;;;5031436;28;20053;-72
2021/01/31 04:49:45;;;;;;;14.30;6.47;;;-1.70;92.60;;;;;;5016691;28;20391;-73
2021/01/31 04:52:39;;;;;;;14.43;6.70;;;-1.70;92.60;;;;;;5026627;28;20297;-72
2021/01/31 04:55:19;;;;;;;11.90;5.83;;;-1.70;92.50;;;;;;5019120;28;20041;-72
2021/01/31 04:58:03;;;;;;;12.93;6.30;;;-1.70;92.50;;;;;;5007084;28;20457;-72
2021/01/31 05:00:32;;;;;;;18.90;7.27;;;-1.70;92.50;;;;;;5028196;28;20432;-72
2021/01/31 05:03:01;;;;;;;13.27;5.87;;;-1.70;92.50;;;;;;5029674;28;20366;-72
2021/01/31 05:05:36;;;;;;;11.63;5.17;;;-1.70;92.60;;;;;;5026953;28;20917;-72
2021/01/31 05:08:16;;;;;;;10.63;4.90;;;-1.70;92.60;;;;;;5005435;28;20064;-72
2021/01/31 05:10:43;;;;;;;8.57;4.23;;;-1.70;92.60;;;;;;5030949;28;20379;-72
2021/01/31 05:13:26;;;;;;;11.83;5.67;;;-1.70;92.60;;;;;;5002350;28;20100;-72
2021/01/31 05:16:10;;;;;;;12.30;6.17;;;-1.70;92.60;;;;;;5031448;28;20132;-72
2021/01/31 05:18:48;;;;;;;13.73;5.90;;;-1.70;92.60;;;;;;5017959;28;20445;-72
2021/01/31 05:21:20;;;;;;;12.97;6.00;;;-1.70;92.60;;;;;;5029886;28;20061;-72
2021/01/31 05:24:00;;;;;;;11.30;4.80;;;-1.70;92.60;;;;;;5018436;28;20040;-72
2021/01/31 05:26:33;;;;;;;14.43;7.43;;;-1.70;92.60;;;;;;5003080;28;20044;-72
2021/01/31 05:29:03;;;;;;;10.93;5.00;;;-1.70;92.60;;;;;;5011925;28;20050;-72
2021/01/31 05:31:33;;;;;;;15.40;6.50;;;-1.70;92.60;;;;;;5007548;28;20050;-72
2021/01/31 05:34:00;;;;;;;13.77;6.37;;;-1.70;92.60;;;;;;5021669;28;20382;-73
2021/01/31 05:36:32;;;;;;;11.57;5.67;;;-1.80;92.60;;;;;;5030985;28;20049;-72
2021/01/31 05:39:00;;;;;;;14.55;6.28;;;-1.80;92.60;;;;;;5016003;28;20042;-72
2021/01/31 05:41:35;;;;;;;13.40;6.53;;;-1.80;92.60;;;;;;5007548;28;20457;-73
2021/01/31 05:44:12;;;;;;;11.77;5.87;;;-1.80;92.60;;;;;;5029927;28;20041;-73
2021/01/31 05:46:41;;;;;;;10.77;4.93;;;-1.80;92.60;;;;;;5033757;28;20107;-73
2021/01/31 05:49:45;;;;;;;15.90;6.67;;;-1.90;92.60;;;;;;5022058;28;20517;-72
2021/01/31 05:52:33;;;;;;;13.03;5.23;;;-1.90;92.60;;;;;;5006534;28;20076;-72
2021/01/31 05:55:01;;;;;;;12.50;5.60;;;-1.90;92.60;;;;;;5020669;28;20116;-72
2021/01/31 05:57:35;;;;;;;13.40;6.10;;;-1.90;92.70;;;;;;5024973;28;20091;-74
2021/01/31 06:00:31;;;;;;;10.60;6.10;;;-2.00;92.70;;;;;;5000598;28;20060;-74
2021/01/31 06:03:09;;;;;;;10.20;4.40;;;-2.00;92.70;;;;;;5029663;28;20049;-75
2021/01/31 06:05:36;;;;;;;12.33;5.60;;;-2.00;92.70;;;;;;5034205;28;20691;-74
2021/01/31 06:08:11;;;;;;;12.47;6.43;;;-2.00;92.70;;;;;;5033412;28;20037;-74
2021/01/31 06:10:40;;;;;;;13.13;5.40;;;-2.00;92.70;;;;;;5026357;28;20042;-72
2021/01/31 06:13:18;;;;;;;10.63;4.23;;;-2.00;92.70;;;;;;5031817;28;20045;-72
2021/01/31 06:15:57;;;;;;;10.67;4.70;;;-2.00;92.70;;;;;;5020934;28;20045;-72
2021/01/31 06:18:28;;;;;;;7.87;3.47;;;-2.00;92.70;;;;;;5029978;28;20066;-72
2021/01/31 06:21:11;;;;;;;9.70;4.43;;;-2.00;92.80;;;;;;5026468;28;20104;-72
2021/01/31 06:23:47;;;;;;;11.40;5.03;;;-2.00;92.80;;;;;;5025411;28;20040;-73
2021/01/31 06:26:29;;;;;;;9.33;4.13;;;-2.10;92.80;;;;;;5022637;28;20042;-72
2021/01/31 06:29:08;;;;;;;11.30;5.03;;;-2.10;92.80;;;;;;5022888;28;20041;-72
2021/01/31 06:31:44;;;;;;;8.50;4.33;;;-2.10;92.80;;;;;;4999995;28;20050;-72
2021/01/31 06:34:10;;;;;;;8.37;3.83;;;-2.10;92.70;;;;;;5019815;28;20041;-72
2021/01/31 06:36:52;;;;;;;11.50;4.67;;;-2.10;92.80;;;;;;5033392;28;20045;-72
2021/01/31 06:39:32;;;;;;;12.23;4.87;;;-2.10;92.80;;;;;;5033070;28;20091;-72
2021/01/31 06:42:12;;;;;;;10.43;4.60;;;-2.10;92.80;;;;;;5028120;28;20053;-72
2021/01/31 06:45:01;;;;;;;11.50;5.10;;;-2.10;92.80;;;;;;5032124;28;20116;-72
2021/01/31 06:48:05;;;;;;;11.03;4.70;;;-2.10;92.80;;;;;;5025570;28;20072;-72
2021/01/31 06:50:57;;;;;;;10.20;4.93;;;-2.10;92.70;;;;;;5031117;28;20107;-72
2021/01/31 06:53:45;;;;;;;10.63;4.80;;;-2.10;92.70;;;;;;5016722;28;20041;-72
2021/01/31 06:56:32;;;;;;;11.10;4.63;;;-2.10;92.80;;;;;;5016219;28;20054;-74
2021/01/31 06:59:09;;;;;;;10.33;5.07;;;-2.10;92.80;;;;;;5021271;28;20457;-72
2021/01/31 07:01:48;;;;;;;9.53;4.30;;;-2.20;92.80;;;;;;5032814;28;20370;-72
2021/01/31 07:04:34;;;;;;;11.07;4.47;;;-2.10;92.80;;;;;;5013277;28;20140;-72
2021/01/31 07:07:18;;;;;;;11.07;4.77;;;-2.20;92.80;;;;;;5004902;28;20382;-72
2021/01/31 07:10:26;;;;;;;10.23;4.70;;;-2.20;92.80;;;;;;5026707;28;20137;-72
2021/01/31 07:13:36;;;;;;;10.20;3.90;;;-2.20;92.80;;;;;;5032761;28;20048;-72
2021/01/31 07:16:27;;;;;;;9.77;4.00;;;-2.20;92.80;;;;;;5026246;28;20101;-72
2021/01/31 07:19:06;;;;;;;12.57;4.97;;;-2.20;92.80;;;;;;5026843;28;20111;-72
2021/01/31 07:21:40;;;;;;;10.10;5.07;;;-2.20;92.80;;;;;;5029744;28;20214;-72
2021/01/31 07:24:17;;;;;;;10.47;4.33;;;-2.20;92.80;;;;;;5023022;28;20045;-72
2021/01/31 07:26:54;;;;;;;12.20;5.80;;;-2.20;92.80;;;;;;5025939;28;20045;-72
2021/01/31 07:29:34;;;;;;;12.73;6.10;;;-2.20;92.90;;;;;;5032502;28;20041;-72
2021/01/31 07:32:06;;;;;;;11.40;5.30;;;-2.20;92.80;;;;;;5032184;28;20052;-72
2021/01/31 07:34:43;;;;;;;9.83;4.23;;;-2.20;92.90;;;;;;5013140;28;20053;-72
2021/01/31 07:37:15;;;;;;;11.93;5.53;;;-2.20;92.90;;;;;;5015727;28;20053;-72
2021/01/31 07:39:41;;;;;;;10.32;4.65;;;-2.20;92.90;;;;;;5030914;28;20053;-72
2021/01/31 07:42:09;;;;;;;10.57;4.43;;;-2.20;92.90;;;;;;5021405;28;20049;-72
2021/01/31 07:44:38;;;;;;;12.87;5.10;;;-2.20;92.90;;;;;;5032104;28;20103;-72
2021/01/31 07:47:05;;;;;;;11.90;5.27;;;-2.20;92.90;;;;;;5029243;28;20053;-72
2021/01/31 07:49:53;;;;;;;14.57;6.60;;;-2.20;92.90;;;;;;5031840;28;20053;-74
2021/01/31 07:52:24;;;;;;;10.33;5.63;;;-2.20;92.90;;;;;;5032928;28;20053;-75
2021/01/31 07:55:17;;;;;;;13.47;6.40;;;-2.20;92.90;;;;;;5029826;28;20037;-74
2021/01/31 07:58:11;;;;;;;11.77;5.00;;;-2.20;92.80;;;;;;5026027;28;20045;-73
2021/01/31 08:00:43;;;;;;;11.27;5.23;;;-2.20;92.90;;;;;;5023150;28;20050;-74
2021/01/31 08:03:18;;;;;;;;;;;-2.20;92.80;;;;;;5031691;28;20058;-74
2021/01/31 08:05:47;;;;;;;11.43;5.00;;;-2.20;92.80;;;;;;5029925;28;19920;-75
2021/01/31 08:08:36;;;;;;;11.50;5.33;;;-2.20;92.80;;;;;;5011907;28;20049;-76
2021/01/31 08:11:05;;;;;;;10.77;4.93;;;-2.20;92.80;;;;;;5023024;28;20045;-75
2021/01/31 08:13:36;;;;;;;14.47;6.13;;;-2.10;92.80;;;;;;5031101;28;20087;-76
2021/01/31 08:16:40;;;;;;;12.67;5.90;;;-2.10;92.80;;;;;;5029212;28;20096;-75
2021/01/31 08:19:11;;;;;;;16.43;7.87;;;-2.00;92.80;;;;;;5020068;28;20038;-74
2021/01/31 08:21:49;;;;;;;15.43;6.93;;;-2.00;92.80;;;;;;5031983;28;20145;-73
2021/01/31 08:24:54;;;;;;;15.37;7.20;;;-2.00;92.70;;;;;;5031028;28;20052;-74
2021/01/31 08:27:40;;;;;;;13.17;6.60;;;-1.90;92.80;;;;;;5030550;28;20038;-72
2021/01/31 08:30:38;;;;;;;14.37;6.53;;;-1.90;92.70;;;;;;5031644;28;20474;-74
2021/01/31 08:33:12;;;;;;;12.10;6.27;;;-1.90;92.70;;;;;;5014001;28;20111;-74
2021/01/31 08:35:55;;;;;;;12.50;5.73;;;-1.80;92.70;;;;;;5032329;28;20430;-75
2021/01/31 08:38:25;;;;;;;14.18;5.78;;;-1.80;92.70;;;;;;5031655;28;20053;-75
2021/01/31 08:41:27;;;;;;;13.03;6.30;;;-1.70;92.70;;;;;;5031158;28;20029;-75
2021/01/31 08:43:56;;;;;;;11.37;5.37;;;-1.70;92.70;;;;;;5029480;28;20049;-74
2021/01/31 08:46:28;;;;;;;12.57;5.47;;;-1.70;92.70;;;;;;5028485;28;20073;-75
2021/01/31 08:49:10;;;;;;;9.90;4.37;;;-1.60;92.70;;;;;;5026368;28;20129;-74
2021/01/31 08:51:42;;;;;;;12.77;6.03;;;-1.60;92.60;;;;;;5027115;28;20302;-75
2021/01/31 08:54:17;;;;;;;9.97;5.30;;;-1.50;92.60;;;;;;5023049;28;20113;-74
2021/01/31 08:56:48;;;;;;;11.37;4.57;;;-1.50;92.60;;;;;;5030433;28;20571;-74
2021/01/31 08:59:20;;;;;;;12.52;6.00;;;-1.40;92.60;;;;;;5029202;28;20046;-74
2021/01/31 09:02:09;;;;;;;12.73;5.70;;;-1.40;92.60;;;;;;5029628;28;20033;-75
2021/01/31 09:04:38;;;;;;;11.33;5.47;;;-1.30;92.50;;;;;;5031534;28;20048;-76
2021/01/31 09:07:05;;;;;;;14.73;5.93;;;-1.30;92.50;;;;;;5036055;28;20026;-76
2021/01/31 09:09:35;;;;;;;12.30;5.30;;;-1.30;92.50;;;;;;5032979;28;20111;-74
2021/01/31 09:12:07;;;;;;;12.37;6.03;;;-1.20;92.50;;;;;;5033963;28;20041;-75
2021/01/31 09:14:39;;;;;;;13.98;6.50;;;-1.20;92.50;;;;;;5033754;28;20049;-74
2021/01/31 09:17:31;;;;;;;11.68;4.95;;;-1.10;92.40;;;;;;5034790;28;20095;-74
2021/01/31 09:20:09;;;;;;;12.50;5.93;;;-1.10;92.40;;;;;;5034800;28;20033;-74
2021/01/31 09:22:40;;;;;;;14.90;5.80;;;-1.10;92.30;;;;;;5031444;28;20052;-74
2021/01/31 09:25:19;;;;;;;11.30;5.73;;;-1.00;92.40;;;;;;5030706;28;20053;-74
2021/01/31 09:28:02;;;;;;;14.80;6.13;;;-1.00;92.30;;;;;;5001273;28;20038;-74
2021/01/31 09:30:29;;;;;;;11.63;5.47;;;-1.00;92.30;;;;;;5033983;28;20046;-75
2021/01/31 09:33:03;;;;;;;11.90;5.57;;;-1.00;92.30;;;;;;5033938;28;20038;-76
2021/01/31 09:35:32;;;;;;;;;;;-1.00;92.30;;;;;;5027403;28;20075;-74
2021/01/31 09:38:24;;;;;;;12.20;5.30;;;-1.00;92.30;;;;;;5029516;28;19921;-73
2021/01/31 09:40:54;;;;;;;14.70;6.07;;;-1.00;92.30;;;;;;5032677;28;20441;-75
2021/01/31 09:43:24;;;;;;;17.73;7.93;;;-1.00;92.30;;;;;;5035035;28;20088;-74
2021/01/31 09:45:55;;;;;;;15.07;7.30;;;-1.00;92.30;;;;;;5027567;28;20062;-74
2021/01/31 09:48:26;;;;;;;20.63;8.83;;;-1.00;92.30;;;;;;5035044;28;20442;-76
2021/01/31 09:51:01;;;;;;;14.70;6.73;;;-1.10;92.20;;;;;;5027832;28;20072;-73
2021/01/31 09:53:43;;;;;;;15.57;7.27;;;-1.10;92.20;;;;;;5022351;28;20041;-73
2021/01/31 09:56:31;;;;;;;14.07;5.83;;;-1.10;92.20;;;;;;5028085;28;20046;-74
2021/01/31 09:58:59;;;;;;;11.37;5.60;;;-1.10;92.30;;;;;;5003638;28;20038;-75
2021/01/31 10:01:28;;;;;;;12.90;6.33;;;-1.10;92.30;;;;;;5027997;28;20041;-76
2021/01/31 10:04:01;;;;;;;11.47;5.20;;;-1.00;92.30;;;;;;5001591;28;20057;-76
2021/01/31 10:06:39;;;;;;;12.30;5.57;;;-1.00;92.30;;;;;;5032629;28;20103;-76
2021/01/31 10:09:06;;;;;;;9.43;4.47;;;-1.00;92.30;;;;;;5034114;28;20046;-73
2021/01/31 10:11:45;;;;;;;13.67;5.97;;;-0.90;92.30;;;;;;5032967;28;20072;-75
2021/01/31 10:14:32;;;;;;;11.10;5.13;;;-1.00;92.20;;;;;;5032875;28;20064;-74
2021/01/31 10:17:20;;;;;;;14.20;7.60;;;-0.90;92.50;;;;;;5032366;28;20064;-73
2021/01/31 10:19:47;;;;;;;14.10;6.37;;;-0.90;92.20;;;;;;5032333;28;20099;-74
2021/01/31 10:22:25;;;;;;;13.33;6.33;;;-0.90;92.20;;;;;;5024654;28;20030;-72
2021/01/31 10:24:52;;;;;;;14.90;6.23;;;-0.80;92.20;;;;;;5022119;28;20041;-72
2021/01/31 10:27:28;;;;;;;18.27;9.53;;;-0.90;92.10;;;;;;5032222;28;20083;-72
2021/01/31 10:30:16;;;;;;;14.90;7.33;;;-0.90;92.10;;;;;;5028550;28;20429;-72
2021/01/31 10:32:42;;;;;;;17.00;9.43;;;-0.90;92.10;;;;;;5021540;28;20092;-72
2021/01/31 10:35:32;;;;;;;18.70;8.40;;;-0.90;92.10;;;;;;5012033;28;20037;-72
2021/01/31 10:38:28;;;;;;;19.07;8.93;;;-0.90;92.10;;;;;;5022041;28;20083;-72
2021/01/31 10:40:55;;;;;;;14.27;6.23;;;-0.90;92.10;;;;;;5033118;28;20092;-71
2021/01/31 10:43:24;;;;;;;16.47;7.40;;;-0.80;92.10;;;;;;5024859;28;20139;-72
2021/01/31 10:45:51;;;;;;;15.37;7.10;;;-0.80;92.10;;;;;;5023952;28;20029;-72
2021/01/31 10:48:17;;;;;;;15.83;6.87;;;-0.70;92.10;;;;;;5029886;28;20041;-72
2021/01/31 10:50:45;;;;;;;14.97;7.30;;;-0.70;92.10;;;;;;5011627;28;20050;-72
2021/01/31 10:53:11;;;;;;;15.97;6.70;;;-0.70;92.10;;;;;;5030436;28;20136;-71
2021/01/31 10:55:38;;;;;;;14.80;6.60;;;-0.60;92.10;;;;;;5030829;28;20156;-72
2021/01/31 10:58:05;;;;;;;16.47;7.63;;;-0.60;92.00;;;;;;5032751;28;20053;-72
2021/01/31 11:00:31;;;;;;;15.63;7.87;;;-0.60;92.00;;;;;;5028618;28;20050;-72
2021/01/31 11:02:58;;;;;;;15.77;7.03;;;-0.50;92.00;;;;;;5010945;28;20038;-72
2021/01/31 11:05:24;;;;;;;13.80;6.60;;;-0.50;92.00;;;;;;5032498;28;20079;-72
2021/01/31 11:07:52;;;;;;;16.37;6.57;;;-0.40;92.00;;;;;;5014367;28;20046;-72
2021/01/31 11:10:18;;;;;;;13.17;6.30;;;-0.40;92.00;;;;;;5031989;28;20095;-72
2021/01/31 11:12:45;;;;;;;14.90;6.63;;;-0.30;92.00;;;;;;5023243;28;20045;-72
2021/01/31 11:15:14;;;;;;;16.17;7.63;;;-0.30;91.90;;;;;;5031420;28;20045;-72
2021/01/31 11:17:41;;;;;;;16.67;7.10;;;-0.30;91.90;;;;;;5031506;28;20219;-72
2021/01/31 11:20:08;;;;;;;15.13;7.40;;;-0.30;91.90;;;;;;5013722;28;20089;-72
2021/01/31 11:22:35;;;;;;;12.57;6.23;;;-0.20;92.20;;;;;;5024477;28;20053;-72
2021/01/31 11:25:04;;;;;;;15.40;6.80;;;-0.20;91.90;;;;;;5019402;28;20041;-72
2021/01/31 11:27:34;;;;;;;14.70;7.00;;;-0.20;91.90;;;;;;5029069;28;20045;-72
2021/01/31 11:30:03;;;;;;;14.47;6.73;;;-0.10;91.90;;;;;;5022966;28;20060;-72
2021/01/31 11:32:30;;;;;;;13.90;6.90;;;-0.10;91.90;;;;;;5009706;28;20079;-73
2021/01/31 11:34:56;;;;;;;15.47;7.03;;;-0.10;91.80;;;;;;5030511;28;20388;-72
2021/01/31 11:37:23;;;;;;;14.40;6.80;;;-0.10;92.10;;;;;;5030369;28;20055;-71
2021/01/31 11:39:49;;;;;;;15.50;7.57;;;0.00;91.80;;;;;;5030433;28;20493;-72
2021/01/31 11:42:16;;;;;;;13.47;6.87;;;0.00;91.80;;;;;;5019105;28;20049;-72
2021/01/31 11:44:44;;;;;;;16.43;6.87;;;0.00;91.80;;;;;;5031176;28;20041;-72
2021/01/31 11:47:13;;;;;;;16.60;7.63;;;0.00;91.80;;;;;;5031176;28;20460;-74
2021/01/31 11:49:40;;;;;;;13.47;6.63;;;0.00;91.80;;;;;;5014436;28;20563;-74
2021/01/31 11:52:07;;;;;;;16.40;7.67;;;0.00;91.80;;;;;;5032088;28;20037;-74
2021/01/31 11:54:33;;;;;;;17.00;7.67;;;0.10;91.80;;;;;;5028112;28;20053;-74
2021/01/31 11:57:00;;;;;;;19.07;8.97;;;0.10;91.80;;;;;;5030935;28;20053;-74
2021/01/31 11:59:27;;;;;;;17.07;8.80;;;0.10;91.70;;;;;;5030350;28;20409;-74
2021/01/31 12:01:54;;;;;;;18.80;8.93;;;0.10;91.70;;;;;;5018700;28;20029;-74
2021/01/31 12:04:21;;;;;;;15.60;7.33;;;0.10;91.70;;;;;;5032038;28;20115;-74
2021/01/31 12:06:47;;;;;;;13.13;6.40;;;0.20;91.70;;;;;;5025443;28;20091;-74
2021/01/31 12:09:14;;;;;;;13.53;6.23;;;0.20;91.70;;;;;;5028558;28;20519;-72
2021/01/31 12:11:41;;;;;;;14.73;7.43;;;0.20;91.70;;;;;;5027692;28;20449;-72
2021/01/31 12:14:07;;;;;;;12.83;6.17;;;0.30;91.70;;;;;;5030815;28;20041;-72
2021/01/31 12:16:34;;;;;;;13.63;6.03;;;0.40;91.70;;;;;;5026380;28;20048;-73
2021/01/31 12:19:01;;;;;;;11.53;6.17;;;0.40;91.70;;;;;;4987059;28;20050;-71
2021/01/31 12:21:27;;;;;;;11.50;4.50;;;0.40;91.70;;;;;;5019865;28;20045;-72
2021/01/31 12:23:54;;;;;;;10.53;5.40;;;0.50;91.90;;;;;;5022397;28;20561;-72
2021/01/31 12:26:20;;;;;;;14.47;7.17;;;0.50;91.70;;;;;;5030206;28;20041;-72
2021/01/31 12:28:47;;;;;;;11.93;5.57;;;0.50;91.60;;;;;;5025357;28;20045;-72
2021/01/31 12:31:14;;;;;;;13.67;6.20;;;0.50;91.60;;;;;;5039692;28;20037;-72
2021/01/31 12:33:40;;;;;;;13.30;5.63;;;0.60;91.60;;;;;;5026218;28;20045;-73
2021/01/31 12:36:08;;;;;;;11.37;5.60;;;0.60;91.60;;;;;;4991615;28;20441;-73
2021/01/31 12:38:35;;;;;;;11.07;4.87;;;0.60;91.60;;;;;;5029190;28;20065;-73
2021/01/31 12:41:01;;;;;;;12.83;5.53;;;0.70;91.60;;;;;;5016088;28;20374;-73
2021/01/31 12:43:28;;;;;;;10.00;4.53;;;0.70;91.60;;;;;;5006382;28;20046;-73
2021/01/31 12:46:00;;;;;;;9.70;4.30;;;0.80;91.60;;;;;;5019153;28;20068;-73
2021/01/31 12:48:26;;;;;;;10.77;4.90;;;0.80;91.60;;;;;;5039783;28;20099;-74
2021/01/31 12:50:53;;;;;;;10.17;3.90;;;0.90;91.60;;;;;;5036374;28;20034;-73
2021/01/31 12:53:20;;;;;;;13.77;6.67;;;0.90;91.50;;;;;;5038326;28;20521;-73
2021/01/31 12:55:47;;;;;;;13.43;6.73;;;1.00;91.50;;;;;;5026613;28;20049;-73
2021/01/31 12:58:13;;;;;;;13.83;6.47;;;1.00;91.40;;;;;;5036017;28;20103;-72
2021/01/31 13:00:40;;;;;;;14.03;7.47;;;1.00;91.40;;;;;;5033840;28;20045;-72
2021/01/31 13:03:07;;;;;;;12.50;6.07;;;1.10;91.40;;;;;;5023472;28;20045;-71
2021/01/31 13:05:35;;;;;;;10.50;4.87;;;1.10;91.30;;;;;;5034433;28;20045;-72
2021/01/31 13:08:03;;;;;;;11.50;6.07;;;1.10;91.40;;;;;;5037128;28;20480;-72
2021/01/31 13:10:30;;;;;;;10.43;5.20;;;1.10;91.30;;;;;;5045413;28;20475;-72